Time;durP1;ratioP1;P1;durP2;ratioP2;P2;SDS_P1;SDS_P2;PMS_P1;PMS_P2;Temp;Humidity;BMP_temperature;BMP_pressure;BME280_temperature;BME280_humidity;BME280_pressure;Samples;Min_cycle;Max_cycle;Signal;HPM_P1;HPM_P2
2024/03/23 00:00:08;;;;;;;0.50;0.50;;;;;;;10.95;62.03;96170.81;29396;236;63004;-57
2024/03/23 00:00:42;;;;;;;0.50;0.50;;;;;;;10.95;62.20;96180.84;29396;227;63009;-58
2024/03/23 00:01:15;;;;;;;0.50;0.50;;;;;;;10.95;62.16;96175.44;29395;219;64005;-57
2024/03/23 00:01:48;;;;;;;0.40;0.40;;;;;;;10.93;62.36;96177.66;29396;223;63009;-57
2024/03/23 00:02:21;;;;;;;0.50;0.50;;;;;;;10.92;62.37;96171.41;29396;330;63005;-56
2024/03/23 00:02:54;;;;;;;0.50;0.50;;;;;;;10.90;62.56;96173.66;29396;257;63009;-57
2024/03/23 00:03:27;;;;;;;0.50;0.50;;;;;;;10.90;62.56;96172.84;29395;260;64005;-58
2024/03/23 00:04:03;;;;;;;0.50;0.50;;;;;;;10.88;62.75;96175.06;29396;253;63009;-57
2024/03/23 00:04:40;;;;;;;0.50;0.50;;;;;;;10.87;62.58;96168.03;29396;208;63015;-57
2024/03/23 00:05:13;;;;;;;0.50;0.50;;;;;;;10.86;62.66;96172.66;29395;240;64009;-57
2024/03/23 00:05:46;;;;;;;0.40;0.40;;;;;;;10.85;62.92;96165.63;29396;202;63004;-69
2024/03/23 00:06:19;;;;;;;0.40;0.40;;;;;;;10.85;63.08;96172.97;29396;228;63009;-57
2024/03/23 00:06:53;;;;;;;0.40;0.40;;;;;;;10.83;63.31;96172.47;29396;231;63004;-57
2024/03/23 00:07:26;;;;;;;0.47;0.47;;;;;;;10.84;63.46;96168.66;29397;213;63008;-57
2024/03/23 00:07:59;;;;;;;0.50;0.50;;;;;;;10.87;63.50;96170.75;29397;199;63005;-56
2024/03/23 00:08:32;;;;;;;0.45;0.45;;;;;;;10.87;63.68;96162.59;29397;234;63005;-58
2024/03/23 00:09:07;;;;;;;0.47;0.47;;;;;;;10.88;63.34;96169.63;29397;252;63005;-58
2024/03/23 00:09:44;;;;;;;0.40;0.40;;;;;;;10.87;63.22;96162.59;29397;207;63009;-57
2024/03/23 00:10:17;;;;;;;0.50;0.50;;;;;;;10.86;62.91;96166.44;29395;197;64005;-56
2024/03/23 00:10:50;;;;;;;0.50;0.50;;;;;;;10.85;63.00;96154.78;29397;221;63009;-57
2024/03/23 00:11:23;;;;;;;0.50;0.50;;;;;;;10.86;63.03;96161.00;29397;267;63004;-57
2024/03/23 00:11:56;;;;;;;0.50;0.50;;;;;;;10.86;63.20;96155.56;29397;199;63009;-67
2024/03/23 00:12:29;;;;;;;0.50;0.50;;;;;;;10.85;63.30;96153.97;29397;215;63004;-57
2024/03/23 00:13:03;;;;;;;0.50;0.50;;;;;;;10.85;62.83;96153.97;29397;234;63021;-56
2024/03/23 00:13:37;;;;;;;0.40;0.40;;;;;;;10.87;62.91;96159.91;29397;260;63004;-57
2024/03/23 00:14:10;;;;;;;0.50;0.50;;;;;;;10.87;62.96;96151.75;29397;221;63004;-57
2024/03/23 00:14:43;;;;;;;0.50;0.50;;;;;;;10.86;62.98;96150.16;29396;231;63004;-56
2024/03/23 00:15:16;;;;;;;0.50;0.50;;;;;;;10.87;62.91;96157.19;29395;246;64024;-58
2024/03/23 00:15:49;;;;;;;0.50;0.50;;;;;;;10.86;63.10;96152.87;29397;220;63005;-57
2024/03/23 00:16:24;;;;;;;0.50;0.50;;;;;;;10.88;63.12;96148.72;29397;227;63019;-57
2024/03/23 00:17:00;;;;;;;0.50;0.50;;;;;;;10.87;62.97;96151.75;29397;207;63005;-57
2024/03/23 00:17:34;;;;;;;0.50;0.50;;;;;;;10.88;63.31;96153.34;29397;266;63009;-57
2024/03/23 00:18:07;;;;;;;0.50;0.50;;;;;;;10.87;62.96;96146.31;29397;244;63005;-69
2024/03/23 00:18:40;;;;;;;0.50;0.50;;;;;;;10.86;63.23;96148.25;29395;244;63009;-57
2024/03/23 00:19:13;;;;;;;0.50;0.50;;;;;;;10.86;63.70;96147.44;29395;204;63004;-57
2024/03/23 00:19:46;;;;;;;0.50;0.50;;;;;;;10.86;63.36;96144.72;29395;221;63023;-56
2024/03/23 00:20:19;;;;;;;0.50;0.50;;;;;;;10.86;62.99;96144.72;29394;235;64016;-57
2024/03/23 00:20:57;;;;;;;0.50;0.50;;;;;;;10.87;62.99;96140.91;29395;243;63009;-56
2024/03/23 00:21:30;;;;;;;0.50;0.50;;;;;;;10.86;63.10;96144.72;29395;209;63004;-57
2024/03/23 00:22:03;;;;;;;0.43;0.43;;;;;;;10.86;63.36;96139.28;29395;258;63008;-58
2024/03/23 00:22:36;;;;;;;0.50;0.50;;;;;;;10.86;63.11;96150.16;29395;225;63005;-57
2024/03/23 00:23:12;;;;;;;0.50;0.50;;;;;;;10.85;63.07;96143.13;29395;198;63017;-57
2024/03/23 00:23:46;;;;;;;0.50;0.50;;;;;;;10.84;63.04;96139.59;29395;262;63005;-58
2024/03/23 00:24:27;;;;;;;0.50;0.50;;;;;;;10.85;63.34;96143.13;29395;239;63009;-58
2024/03/23 00:25:00;;;;;;;0.50;0.50;;;;;;;10.84;63.35;96136.91;29417;239;63005;-57
2024/03/23 00:25:33;;;;;;;0.50;0.50;;;;;;;10.85;63.07;96134.97;29393;237;64009;-57
2024/03/23 00:26:06;;;;;;;0.50;0.50;;;;;;;10.84;63.09;96138.81;29395;212;63005;-57
2024/03/23 00:26:40;;;;;;;0.50;0.50;;;;;;;10.84;63.63;96141.53;29395;366;63009;-57
2024/03/23 00:27:13;;;;;;;0.50;0.50;;;;;;;10.80;64.01;96137.81;29395;375;63004;-58
2024/03/23 00:27:46;;;;;;;0.50;0.50;;;;;;;10.82;63.02;96139.13;29395;254;63009;-58
2024/03/23 00:28:19;;;;;;;0.50;0.50;;;;;;;10.83;62.84;96139.91;29395;219;63004;-57
2024/03/23 00:28:52;;;;;;;0.50;0.50;;;;;;;10.83;62.59;96134.50;29395;229;63004;-57
2024/03/23 00:29:26;;;;;;;0.50;0.50;;;;;;;10.83;63.02;96140.72;29395;259;63004;-57
2024/03/23 00:29:59;;;;;;;0.50;0.50;;;;;;;10.84;62.86;96138.81;29395;207;63009;-57
2024/03/23 00:30:36;;;;;;;0.50;0.50;;;;;;;10.83;62.72;96134.50;29395;207;63005;-57
2024/03/23 00:31:09;;;;;;;0.50;0.50;;;;;;;10.81;62.67;96139.44;29393;215;64009;-57
2024/03/23 00:31:43;;;;;;;0.50;0.50;;;;;;;10.78;63.03;96132.72;29395;208;63005;-57
2024/03/23 00:32:16;;;;;;;0.50;0.50;;;;;;;10.77;63.05;96138.44;29394;203;63009;-68
2024/03/23 00:32:49;;;;;;;0.40;0.40;;;;;;;10.73;63.31;96130.97;29395;232;63005;-57
2024/03/23 00:33:22;;;;;;;0.50;0.50;;;;;;;10.72;63.15;96132.06;29393;303;64009;-57
2024/03/23 00:33:55;;;;;;;0.50;0.50;;;;;;;10.70;63.67;96131.59;29395;421;63004;-57
2024/03/23 00:34:29;;;;;;;0.50;0.50;;;;;;;10.68;63.45;96127.56;29395;210;63009;-58
2024/03/23 00:35:02;;;;;;;0.50;0.50;;;;;;;10.67;63.52;96131.41;29395;211;63004;-57
2024/03/23 00:35:36;;;;;;;0.50;0.50;;;;;;;10.64;63.72;96127.41;29395;228;63009;-58
2024/03/23 00:36:09;;;;;;;0.50;0.50;;;;;;;10.60;64.79;96131.84;29395;212;63004;-58
2024/03/23 00:36:42;;;;;;;0.50;0.50;;;;;;;10.60;64.33;96131.84;29395;206;63008;-57
2024/03/23 00:37:16;;;;;;;0.50;0.50;;;;;;;10.59;64.67;96130.22;29395;246;63005;-57
2024/03/23 00:37:49;;;;;;;0.50;0.50;;;;;;;10.58;64.53;96127.84;29395;206;63016;-57
2024/03/23 00:38:24;;;;;;;0.50;0.50;;;;;;;10.56;64.49;96128.13;29393;242;64005;-58
2024/03/23 00:38:58;;;;;;;0.50;0.50;;;;;;;10.54;64.47;96127.66;29395;239;63009;-57
2024/03/23 00:39:31;;;;;;;0.50;0.50;;;;;;;10.52;65.66;96134.50;29395;297;63005;-58
2024/03/23 00:40:05;;;;;;;0.50;0.50;;;;;;;10.52;64.83;96121.72;29395;237;63005;-58
2024/03/23 00:40:38;;;;;;;0.50;0.50;;;;;;;10.51;64.35;96122.84;29395;215;63005;-57
2024/03/23 00:41:11;;;;;;;0.50;0.50;;;;;;;10.52;64.48;96119.03;29395;249;63009;-57
2024/03/23 00:41:44;;;;;;;0.50;0.50;;;;;;;10.52;64.57;96119.03;29395;240;63004;-58
2024/03/23 00:42:17;;;;;;;0.50;0.50;;;;;;;10.52;64.41;96121.72;29395;241;63009;-58
2024/03/23 00:42:50;;;;;;;0.50;0.50;;;;;;;10.52;64.62;96116.31;29395;215;63004;-58
2024/03/23 00:43:24;;;;;;;0.50;0.50;;;;;;;10.52;64.49;96120.94;29393;322;64009;-58
2024/03/23 00:43:57;;;;;;;0.50;0.50;;;;;;;10.52;64.70;96116.31;29393;233;64004;-57
2024/03/23 00:44:31;;;;;;;0.50;0.50;;;;;;;10.51;64.54;96116.63;29395;343;63008;-58
2024/03/23 00:45:04;;;;;;;0.40;0.40;;;;;;;10.51;64.57;96117.41;29395;198;63005;-57
2024/03/23 00:45:40;;;;;;;0.40;0.40;;;;;;;10.50;64.73;96115.81;29395;204;63009;-57
2024/03/23 00:46:13;;;;;;;0.50;0.50;;;;;;;10.53;64.72;96112.50;29395;231;63005;-58
2024/03/23 00:46:58;;;;;;;0.50;0.50;;;;;;;10.54;64.52;96105.16;29394;226;64009;-57
2024/03/23 00:47:32;;;;;;;0.50;0.50;;;;;;;10.54;64.61;96111.38;29395;214;63005;-57
2024/03/23 00:48:05;;;;;;;0.50;0.50;;;;;;;10.54;64.91;96105.16;29395;200;63009;-57
2024/03/23 00:48:41;;;;;;;0.50;0.50;;;;;;;10.54;64.70;96105.94;29394;463;64005;-56
2024/03/23 00:49:14;;;;;;;0.50;0.50;;;;;;;10.54;65.26;96105.94;29394;222;64009;-57
2024/03/23 00:49:48;;;;;;;0.50;0.50;;;;;;;10.52;65.81;96108.16;29395;202;63004;-69
2024/03/23 00:50:21;;;;;;;0.50;0.50;;;;;;;10.52;64.99;96108.16;29395;202;63009;-57
2024/03/23 00:50:54;;;;;;;0.50;0.50;;;;;;;10.52;64.91;96108.16;29395;229;63004;-57
2024/03/23 00:51:27;;;;;;;0.50;0.50;;;;;;;10.53;64.93;96104.34;29395;244;63008;-57
2024/03/23 00:52:00;;;;;;;0.50;0.50;;;;;;;10.56;64.94;96103.72;29395;422;63004;-57
2024/03/23 00:52:39;;;;;;;0.50;0.50;;;;;;;10.59;65.18;96100.41;29395;248;63009;-57
2024/03/23 00:53:11;;;;;;;0.50;0.50;;;;;;;10.60;64.75;96099.28;29395;519;63015;-57
2024/03/23 00:53:51;;;;;;;0.50;0.50;;;;;;;10.62;64.98;96099.78;29415;253;64009;-57
2024/03/23 00:54:22;;;;;;;0.50;0.50;;;;;;;10.62;65.08;96097.06;29395;230;63005;-57
2024/03/23 00:54:53;;;;;;;0.90;0.90;;;;;;;10.66;64.65;96098.03;29395;212;63009;-56
2024/03/23 00:55:25;;;;;;;0.50;0.50;;;;;;;10.68;64.28;96101.25;29395;350;63008;-57
2024/03/23 00:55:56;;;;;;;0.50;0.50;;;;;;;10.69;64.46;96097.41;29395;327;63009;-57
2024/03/23 00:56:28;;;;;;;0.50;0.50;;;;;;;10.67;64.27;96094.22;29395;202;63005;-57
2024/03/23 00:56:59;;;;;;;0.50;0.50;;;;;;;10.68;64.53;96089.59;29395;217;63009;-56
2024/03/23 00:57:31;;;;;;;0.50;0.50;;;;;;;10.67;64.58;96088.78;29395;222;63004;-57
2024/03/23 00:58:02;;;;;;;0.50;0.50;;;;;;;10.67;64.75;96083.37;29395;227;63009;-58
2024/03/23 00:58:33;;;;;;;0.50;0.50;;;;;;;10.68;64.57;96084.16;29395;223;63004;-57
2024/03/23 00:59:05;;;;;;;0.50;0.50;;;;;;;10.69;64.26;96086.56;29393;196;64008;-57
2024/03/23 00:59:37;;;;;;;0.50;0.50;;;;;;;10.68;64.20;96090.41;29395;213;63004;-57
2024/03/23 01:00:10;;;;;;;0.50;0.50;;;;;;;10.66;64.73;96087.19;29395;204;63009;-57
2024/03/23 01:00:44;;;;;;;0.50;0.50;;;;;;;10.65;64.47;96080.16;29395;203;63005;-57
2024/03/23 01:01:16;;;;;;;0.50;0.50;;;;;;;10.68;64.48;96084.97;29395;207;63009;-58
2024/03/23 01:01:47;;;;;;;0.50;0.50;;;;;;;10.69;64.18;96083.84;29395;279;63005;-58
2024/03/23 01:02:18;;;;;;;0.40;0.40;;;;;;;10.68;64.28;96084.16;29395;202;63009;-57
2024/03/23 01:02:51;;;;;;;0.40;0.40;;;;;;;10.68;64.83;96084.16;29395;212;63005;-57
2024/03/23 01:03:22;;;;;;;0.50;0.50;;;;;;;10.64;65.19;96089.41;29395;227;63009;-59
2024/03/23 01:03:53;;;;;;;0.50;0.50;;;;;;;10.62;64.68;96079.97;29395;228;63005;-57
2024/03/23 01:04:26;;;;;;;0.50;0.50;;;;;;;10.61;64.74;96087.31;29393;291;64009;-58
2024/03/23 01:04:58;;;;;;;0.50;0.50;;;;;;;10.54;65.18;96078.03;29395;377;63004;-68
2024/03/23 01:05:31;;;;;;;0.50;0.50;;;;;;;10.61;64.97;96087.31;29395;227;63009;-57
2024/03/23 01:06:03;;;;;;;0.50;0.50;;;;;;;10.62;64.97;96080.78;29395;238;63004;-57
2024/03/23 01:06:35;;;;;;;0.50;0.50;;;;;;;10.64;64.89;96083.19;29395;222;63008;-57
2024/03/23 01:07:07;;;;;;;0.50;0.50;;;;;;;10.65;64.86;96069.31;29395;308;63004;-57
2024/03/23 01:07:38;;;;;;;0.50;0.50;;;;;;;10.68;64.96;96079.53;29395;356;63016;-57
2024/03/23 01:08:09;;;;;;;0.50;0.50;;;;;;;10.69;64.56;96080.34;29395;417;63005;-57
2024/03/23 01:08:41;;;;;;;0.50;0.50;;;;;;;10.71;64.52;96088.97;29395;217;63009;-57
2024/03/23 01:09:13;;;;;;;0.50;0.50;;;;;;;10.72;64.36;96079.72;29395;217;63016;-57
2024/03/23 01:09:44;;;;;;;0.50;0.50;;;;;;;10.70;64.46;96082.75;29394;355;64009;-57
2024/03/23 01:10:16;;;;;;;0.50;0.50;;;;;;;10.70;64.45;96082.75;29395;203;63005;-57
2024/03/23 01:10:57;;;;;;;0.50;0.50;;;;;;;10.69;64.47;96086.56;29395;212;63009;-57
2024/03/23 01:11:28;;;;;;;;;;;;;;;10.69;65.89;96086.56;29996;983;6000;-57
2024/03/23 01:11:59;;;;;;;0.50;0.50;;;;;;;10.66;65.44;96087.19;29422;231;63004;-57
2024/03/23 01:12:30;;;;;;;0.50;0.50;;;;;;;10.64;65.14;96084.00;29395;210;63009;-57
2024/03/23 01:13:01;;;;;;;0.50;0.50;;;;;;;10.64;65.40;96088.59;29395;241;63004;-67
2024/03/23 01:13:33;;;;;;;0.50;0.50;;;;;;;10.62;64.94;96080.78;29395;227;63008;-57
2024/03/23 01:14:04;;;;;;;0.50;0.50;;;;;;;10.62;65.29;96075.34;29395;213;63004;-58
2024/03/23 01:14:36;;;;;;;0.50;0.50;;;;;;;10.63;65.54;96078.88;29395;213;63008;-56
2024/03/23 01:15:08;;;;;;;0.50;0.50;;;;;;;10.63;65.36;96079.66;29394;285;64005;-57
2024/03/23 01:15:39;;;;;;;0.50;0.50;;;;;;;10.62;65.32;96075.34;29394;208;64009;-57
2024/03/23 01:16:11;;;;;;;0.50;0.50;;;;;;;10.61;65.42;96073.75;29395;216;63015;-57
2024/03/23 01:16:42;;;;;;;0.50;0.50;;;;;;;10.63;65.03;96073.44;29395;246;63009;-57
2024/03/23 01:17:13;;;;;;;0.50;0.50;;;;;;;10.63;65.47;96074.25;29395;460;63005;-58
2024/03/23 01:17:44;;;;;;;0.50;0.50;;;;;;;10.63;65.47;96071.53;29395;418;63009;-57
2024/03/23 01:18:16;;;;;;;0.50;0.50;;;;;;;10.63;65.29;96076.16;29395;240;63005;-58
2024/03/23 01:18:48;;;;;;;0.50;0.50;;;;;;;10.62;65.32;96069.13;29395;202;63009;-57
2024/03/23 01:19:19;;;;;;;0.50;0.50;;;;;;;10.62;65.34;96069.94;29394;256;64004;-67
2024/03/23 01:19:50;;;;;;;0.50;0.50;;;;;;;10.62;65.55;96067.22;29395;263;63009;-57
2024/03/23 01:20:22;;;;;;;0.50;0.50;;;;;;;10.62;65.53;96069.94;29395;222;63004;-58
2024/03/23 01:20:53;;;;;;;0.50;0.50;;;;;;;10.63;65.96;96066.09;29394;233;64008;-56
2024/03/23 01:21:25;;;;;;;0.50;0.50;;;;;;;10.63;65.93;96068.81;29394;230;64004;-57
2024/03/23 01:21:56;;;;;;;0.50;0.50;;;;;;;10.63;65.86;96068.03;29395;306;63009;-57
2024/03/23 01:22:27;;;;;;;0.50;0.50;;;;;;;10.62;65.94;96063.72;29395;224;63005;-57
2024/03/23 01:22:58;;;;;;;0.50;0.50;;;;;;;10.60;65.94;96061.31;29395;309;63009;-68
2024/03/23 01:23:29;;;;;;;0.50;0.50;;;;;;;10.60;65.87;96061.31;29395;222;63005;-57
2024/03/23 01:24:01;;;;;;;0.50;0.50;;;;;;;10.60;65.73;96061.31;29395;268;63009;-57
2024/03/23 01:24:32;;;;;;;0.50;0.50;;;;;;;10.59;66.27;96064.31;29395;249;63005;-57
2024/03/23 01:25:04;;;;;;;0.50;0.50;;;;;;;10.58;66.17;96068.97;29394;197;64009;-56
2024/03/23 01:25:35;;;;;;;0.50;0.50;;;;;;;10.59;65.95;96057.00;29395;204;63005;-57
2024/03/23 01:26:06;;;;;;;0.50;0.50;;;;;;;10.61;65.58;96057.47;29395;212;63009;-57
2024/03/23 01:26:37;;;;;;;0.50;0.50;;;;;;;10.64;65.44;96056.84;29395;216;63004;-56
2024/03/23 01:27:09;;;;;;;0.50;0.50;;;;;;;10.64;65.92;96058.78;29395;294;63009;-57
2024/03/23 01:27:41;;;;;;;0.47;0.47;;;;;;;10.65;65.71;96054.94;29395;213;63014;-57
2024/03/23 01:28:12;;;;;;;0.50;0.50;;;;;;;10.62;65.64;96048.22;29395;202;63009;-57
2024/03/23 01:28:43;;;;;;;0.50;0.50;;;;;;;10.67;66.00;96061.66;29395;213;63008;-58
2024/03/23 01:29:14;;;;;;;0.50;0.50;;;;;;;10.67;66.13;96061.66;29395;224;63009;-57
2024/03/23 01:29:47;;;;;;;0.50;0.50;;;;;;;10.67;66.02;96056.22;29394;198;64005;-57
2024/03/23 01:30:18;;;;;;;0.50;0.50;;;;;;;10.68;65.69;96057.84;29395;206;63005;-57
2024/03/23 01:30:50;;;;;;;0.50;0.50;;;;;;;10.69;65.87;96058.63;29395;215;63005;-58
2024/03/23 01:31:21;;;;;;;0.50;0.50;;;;;;;10.68;65.47;96057.84;29395;198;63009;-57
2024/03/23 01:31:52;;;;;;;0.50;0.50;;;;;;;10.69;65.46;96051.28;29393;209;64005;-58
2024/03/23 01:32:24;;;;;;;0.50;0.50;;;;;;;10.71;65.47;96053.69;29395;243;63009;-57
2024/03/23 01:32:55;;;;;;;0.50;0.50;;;;;;;10.71;65.92;96050.97;29395;256;63005;-57
2024/03/23 01:33:26;;;;;;;0.50;0.50;;;;;;;10.69;65.51;96056.72;29395;197;63009;-57
2024/03/23 01:33:58;;;;;;;0.50;0.50;;;;;;;10.70;65.78;96050.19;29395;213;63004;-56
2024/03/23 01:34:29;;;;;;;0.50;0.50;;;;;;;10.68;66.06;96046.97;29395;202;63004;-57
2024/03/23 01:35:01;;;;;;;0.50;0.50;;;;;;;10.69;65.93;96056.72;29395;208;63004;-57
2024/03/23 01:35:32;;;;;;;0.50;0.50;;;;;;;10.71;65.96;96050.97;29394;288;64009;-57
2024/03/23 01:36:04;;;;;;;0.50;0.50;;;;;;;10.71;65.83;96051.78;29395;218;63004;-58
2024/03/23 01:36:35;;;;;;;0.50;0.50;;;;;;;10.75;65.98;96044.59;29395;223;63008;-57
2024/03/23 01:37:06;;;;;;;0.50;0.50;;;;;;;10.76;65.99;96048.09;29395;415;63005;-57
2024/03/23 01:37:38;;;;;;;0.50;0.50;;;;;;;10.77;65.76;96043.47;29395;455;63009;-57
2024/03/23 01:38:09;;;;;;;0.50;0.50;;;;;;;10.77;65.64;96043.47;29395;294;63005;-57
2024/03/23 01:38:40;;;;;;;0.50;0.50;;;;;;;10.74;66.78;96043.00;29395;414;63009;-68
2024/03/23 01:39:12;;;;;;;0.50;0.50;;;;;;;10.73;66.55;96049.56;29395;199;63005;-57
2024/03/23 01:39:43;;;;;;;0.50;0.50;;;;;;;10.78;66.06;96055.94;29395;262;63009;-57
2024/03/23 01:41:20;;;;;;;0.50;0.50;;;;;;;10.79;66.05;96049.38;88181;205;64005;-90
2024/03/23 01:41:51;;;;;;;0.50;0.50;;;;;;;10.79;65.91;96049.38;29394;205;64009;-91
2024/03/23 01:42:22;;;;;;;0.50;0.50;;;;;;;10.75;65.95;96044.59;29395;208;63004;-90
2024/03/23 01:43:07;;;;;;;0.50;0.50;;;;;;;10.74;66.12;96051.13;29395;277;63009;-90
2024/03/23 01:43:39;;;;;;;0.50;0.50;;;;;;;10.72;66.38;96060.72;29395;208;63010;-91
2024/03/23 01:44:11;;;;;;;0.50;0.50;;;;;;;10.70;66.12;96052.91;29395;299;63009;-92
2024/03/23 01:44:42;;;;;;;0.50;0.50;;;;;;;10.71;66.47;96051.78;29395;237;63005;-90
2024/03/23 01:45:14;;;;;;;0.50;0.50;;;;;;;10.70;66.50;96052.91;29394;258;64014;-91
2024/03/23 01:45:45;;;;;;;0.50;0.50;;;;;;;10.71;66.68;96051.78;29394;234;64009;-91
2024/03/23 01:46:17;;;;;;;0.50;0.50;;;;;;;10.71;67.01;96057.22;29395;205;63005;-91
2024/03/23 01:46:49;;;;;;;0.50;0.50;;;;;;;10.71;66.62;96048.28;29395;239;63005;-92
2024/03/23 01:47:21;;;;;;;0.50;0.50;;;;;;;10.71;66.69;96040.13;29395;225;63009;-90
2024/03/23 01:47:53;;;;;;;0.50;0.50;;;;;;;10.70;66.56;96044.75;29395;232;63004;-92
2024/03/23 01:48:24;;;;;;;0.50;0.50;;;;;;;10.70;66.98;96039.34;29395;248;63009;-91
2024/03/23 01:48:58;;;;;;;0.50;0.50;;;;;;;10.73;66.73;96044.13;29395;236;63004;-90
2024/03/23 01:49:29;;;;;;;0.50;0.50;;;;;;;10.77;66.28;96038.06;29395;197;63009;-92
2024/03/23 01:50:01;;;;;;;0.50;0.50;;;;;;;10.77;66.35;96038.06;29395;325;63007;-91
2024/03/23 01:50:33;;;;;;;0.50;0.50;;;;;;;10.75;66.40;96025.59;29395;263;63008;-91
2024/03/23 01:51:06;;;;;;;0.50;0.50;;;;;;;10.74;66.18;96040.28;29394;254;64008;-91
2024/03/23 01:51:38;;;;;;;0.50;0.50;;;;;;;10.74;66.40;96042.22;29395;236;63005;-91
2024/03/23 01:52:10;;;;;;;0.50;0.50;;;;;;;10.72;66.45;96034.41;29395;235;63005;-91
2024/03/23 01:52:41;;;;;;;0.50;0.50;;;;;;;10.72;66.53;96037.09;29395;198;63009;-92
2024/03/23 01:53:17;;;;;;;0.50;0.50;;;;;;;10.71;66.83;96027.38;29395;252;63012;-92
2024/03/23 01:53:53;;;;;;;0.45;0.45;;;;;;;10.69;66.46;96024.16;29395;231;63009;-91
2024/03/23 01:54:25;;;;;;;0.50;0.50;;;;;;;10.65;67.21;96017.75;29395;202;63005;-90
2024/03/23 01:54:57;;;;;;;0.50;0.50;;;;;;;10.68;66.97;96025.28;29395;351;63017;-91
2024/03/23 01:55:29;;;;;;;0.50;0.50;;;;;;;10.68;67.08;96019.84;29395;205;63010;-91
2024/03/23 01:56:00;;;;;;;0.50;0.50;;;;;;;10.68;66.86;96025.28;29395;258;63009;-91
2024/03/23 01:56:37;;;;;;;0.50;0.50;;;;;;;10.68;66.69;96028.00;29394;339;64009;-90
2024/03/23 01:57:10;;;;;;;0.50;0.50;;;;;;;10.68;67.06;96013.63;29395;484;63009;-91
2024/03/23 01:57:41;;;;;;;0.47;0.47;;;;;;;10.71;66.79;96024.66;29394;289;64008;-91
2024/03/23 01:58:13;;;;;;;0.50;0.50;;;;;;;10.73;66.53;96017.00;29395;241;63008;-91
2024/03/23 01:58:45;;;;;;;0.50;0.50;;;;;;;10.75;66.76;96020.16;29395;383;63005;-92
2024/03/23 01:59:22;;;;;;;0.50;0.50;;;;;;;10.74;66.46;96015.84;29395;303;63009;-90
2024/03/23 01:59:53;;;;;;;0.50;0.50;;;;;;;10.74;66.51;96018.56;29395;446;63005;-92
2024/03/23 02:00:25;;;;;;;0.50;0.50;;;;;;;10.75;66.52;96025.59;29395;238;63009;-91
2024/03/23 02:00:58;;;;;;;0.50;0.50;;;;;;;10.75;66.39;96016.66;29394;254;64009;-92
2024/03/23 02:01:32;;;;;;;0.50;0.50;;;;;;;10.72;67.08;96026.25;29395;399;63009;-91
2024/03/23 02:02:03;;;;;;;0.50;0.50;;;;;;;10.70;67.47;96022.25;29395;218;63005;-92
2024/03/23 02:02:35;;;;;;;0.50;0.50;;;;;;;10.67;67.10;96023.69;29395;202;63020;-93
2024/03/23 02:03:28;;;;;;;0.50;0.50;;;;;;;10.67;67.48;96015.53;29394;210;64009;-90
2024/03/23 02:04:00;;;;;;;0.50;0.50;;;;;;;10.70;67.35;96016.81;29395;270;63004;-90
2024/03/23 02:04:31;;;;;;;0.50;0.50;;;;;;;10.70;67.13;96014.13;29395;391;63004;-92
2024/03/23 02:05:03;;;;;;;0.40;0.40;;;;;;;10.70;67.02;96006.78;29395;253;63008;-91
2024/03/23 02:05:38;;;;;;;0.50;0.50;;;;;;;10.73;67.24;96006.16;29395;291;63004;-90
2024/03/23 02:06:09;;;;;;;0.50;0.50;;;;;;;10.73;67.08;96006.16;29394;266;64014;-92
2024/03/23 02:06:42;;;;;;;0.55;0.55;;;;;;;10.74;66.86;96007.72;29394;251;64009;-91
2024/03/23 02:07:13;;;;;;;0.50;0.50;;;;;;;10.81;67.15;96001.84;29395;274;63009;-90
2024/03/23 02:07:44;;;;;;;0.50;0.50;;;;;;;10.80;67.05;95988.56;29395;250;63005;-90
2024/03/23 02:08:33;;;;;;;0.50;0.50;;;;;;;10.79;67.14;95995.12;29395;227;63009;-89
2024/03/23 02:09:15;;;;;;;0.50;0.50;;;;;;;10.75;67.22;95998.47;29394;292;64009;-91
2024/03/23 02:10:04;;;;;;;0.50;0.50;;;;;;;10.77;67.40;96000.06;29395;234;63009;-91
2024/03/23 02:10:35;;;;;;;0.50;0.50;;;;;;;10.77;67.28;96002.78;29395;206;63004;-91
2024/03/23 02:11:12;;;;;;;0.50;0.50;;;;;;;10.74;67.38;96002.28;29395;229;63009;-91
2024/03/23 02:11:45;;;;;;;0.50;0.50;;;;;;;10.72;67.58;96004.53;29394;280;64009;-91
2024/03/23 02:12:25;;;;;;;0.50;0.50;;;;;;;10.68;67.74;96002.78;29395;207;63009;-92
2024/03/23 02:12:56;;;;;;;0.50;0.50;;;;;;;10.67;68.34;96004.69;29395;302;63004;-92
2024/03/23 02:13:27;;;;;;;0.50;0.50;;;;;;;10.65;68.42;95995.25;29395;236;63014;-57
2024/03/23 02:13:58;;;;;;;0.50;0.50;;;;;;;10.63;68.38;96009.13;29395;268;63005;-56
2024/03/23 02:14:29;;;;;;;0.50;0.50;;;;;;;10.62;68.36;96002.13;29395;211;63009;-56
2024/03/23 02:15:03;;;;;;;0.50;0.50;;;;;;;10.62;68.53;95999.41;29395;265;63005;-57
2024/03/23 02:15:34;;;;;;;0.50;0.50;;;;;;;10.62;68.12;95999.41;29395;227;63009;-57
2024/03/23 02:16:06;;;;;;;0.50;0.50;;;;;;;10.62;68.46;96004.81;29395;199;63005;-56
2024/03/23 02:16:37;;;;;;;0.50;0.50;;;;;;;10.59;69.13;96004.66;29395;232;63009;-56
2024/03/23 02:17:09;;;;;;;0.50;0.50;;;;;;;10.56;68.50;96011.50;29394;465;64009;-56
2024/03/23 02:17:41;;;;;;;0.50;0.50;;;;;;;10.56;68.70;96006.06;29395;224;63009;-56
2024/03/23 02:18:12;;;;;;;0.50;0.50;;;;;;;10.57;68.56;96007.69;29395;211;63004;-59
2024/03/23 02:18:44;;;;;;;0.50;0.50;;;;;;;10.60;68.62;96003.53;29395;280;63009;-70
2024/03/23 02:19:15;;;;;;;0.50;0.50;;;;;;;10.62;68.47;96006.75;29394;485;64009;-59
2024/03/23 02:19:46;;;;;;;0.60;0.60;;;;;;;10.63;68.49;96003.72;29395;226;63009;-58
2024/03/23 02:20:18;;;;;;;0.50;0.50;;;;;;;10.65;68.33;95998.78;29395;237;63004;-59
2024/03/23 02:20:49;;;;;;;0.50;0.50;;;;;;;10.65;68.13;95998.78;29395;255;63008;-58
2024/03/23 02:21:20;;;;;;;0.50;0.50;;;;;;;10.67;68.85;95998.47;29395;247;63014;-68
2024/03/23 02:21:52;;;;;;;0.50;0.50;;;;;;;10.69;68.56;96005.16;29394;274;64014;-58
2024/03/23 02:22:24;;;;;;;0.50;0.50;;;;;;;10.67;68.43;95996.53;29395;221;63005;-59
2024/03/23 02:22:55;;;;;;;0.50;0.50;;;;;;;10.67;68.58;95995.75;29395;297;63009;-58
2024/03/23 02:23:26;;;;;;;0.50;0.50;;;;;;;10.65;68.54;95987.91;29395;375;63005;-58
2024/03/23 02:23:59;;;;;;;0.50;0.50;;;;;;;10.64;69.67;95996.38;29395;246;63009;-58
2024/03/23 02:24:30;;;;;;;0.50;0.50;;;;;;;10.62;68.91;95982.31;29395;482;63009;-58
2024/03/23 02:25:03;;;;;;;0.50;0.50;;;;;;;10.61;68.87;95986.94;29395;212;63005;-58
2024/03/23 02:25:34;;;;;;;0.50;0.50;;;;;;;10.62;69.06;95983.13;29395;208;63004;-59
2024/03/23 02:26:05;;;;;;;0.50;0.50;;;;;;;10.63;68.71;95989.34;29395;372;63009;-59
2024/03/23 02:26:37;;;;;;;0.50;0.50;;;;;;;10.62;68.75;95993.19;29395;251;63004;-59
2024/03/23 02:27:08;;;;;;;0.50;0.50;;;;;;;10.61;68.61;95991.56;29394;211;64013;-58
2024/03/23 02:27:40;;;;;;;0.50;0.50;;;;;;;10.61;68.64;95989.66;29395;255;63004;-59
2024/03/23 02:28:12;;;;;;;0.50;0.50;;;;;;;10.62;69.08;95988.53;29395;216;63008;-58
2024/03/23 02:28:43;;;;;;;0.50;0.50;;;;;;;10.62;69.40;95993.97;29395;255;63005;-57
2024/03/23 02:29:15;;;;;;;0.50;0.50;;;;;;;10.63;69.21;95989.34;29395;211;63009;-58
2024/03/23 02:29:46;;;;;;;0.50;0.50;;;;;;;10.62;69.06;95983.13;29394;255;64009;-57
2024/03/23 02:30:17;;;;;;;0.50;0.50;;;;;;;10.61;69.30;95986.94;29394;326;64009;-58
2024/03/23 02:30:52;;;;;;;0.50;0.50;;;;;;;10.62;69.41;95983.13;29395;202;63005;-59
2024/03/23 02:31:23;;;;;;;0.50;0.50;;;;;;;10.63;69.50;95984.72;29395;228;63015;-59
2024/03/23 02:31:55;;;;;;;0.50;0.50;;;;;;;10.65;69.34;95984.41;29395;406;63004;-59
2024/03/23 02:32:26;;;;;;;0.50;0.50;;;;;;;10.64;69.67;95980.91;29394;206;64013;-58
2024/03/23 02:32:57;;;;;;;0.50;0.50;;;;;;;10.63;69.32;95984.72;29395;493;63004;-58
2024/03/23 02:33:29;;;;;;;0.50;0.50;;;;;;;10.63;69.45;95982.00;29394;199;64013;-58
2024/03/23 02:34:00;;;;;;;0.50;0.50;;;;;;;10.63;69.24;95990.16;29394;210;64009;-59
2024/03/23 02:34:31;;;;;;;0.50;0.50;;;;;;;10.62;69.26;95993.97;29395;439;63008;-59
2024/03/23 02:35:04;;;;;;;0.50;0.50;;;;;;;10.60;70.20;95990.78;29395;272;63000;-58
2024/03/23 02:35:36;;;;;;;0.50;0.50;;;;;;;10.59;70.65;95993.81;29395;202;63023;-59
2024/03/23 02:36:07;;;;;;;0.50;0.50;;;;;;;10.56;70.52;95983.56;29395;259;63005;-58
2024/03/23 02:36:38;;;;;;;0.50;0.50;;;;;;;10.54;69.78;95983.87;29395;251;63009;-59
2024/03/23 02:37:12;;;;;;;0.50;0.50;;;;;;;10.53;70.02;95989.63;29395;362;63005;-58